createdAt,value
2023-04-26T00:02:14.852Z,1.80
2023-04-26T00:04:41.553Z,1.48
2023-04-26T00:07:07.956Z,1.58
2023-04-26T00:09:34.247Z,1.98
2023-04-26T00:12:00.726Z,1.73
2023-04-26T00:14:27.115Z,1.45
2023-04-26T00:16:53.565Z,1.73
2023-04-26T00:19:19.907Z,1.52
2023-04-26T00:21:46.255Z,1.70
2023-04-26T00:24:12.595Z,1.95
2023-04-26T00:26:38.901Z,1.95
2023-04-26T00:29:05.232Z,1.38
2023-04-26T00:31:31.561Z,1.50
2023-04-26T00:33:57.979Z,1.83
2023-04-26T00:36:24.348Z,1.90
2023-04-26T00:38:50.994Z,1.40
2023-04-26T00:41:17.531Z,1.67
2023-04-26T00:43:44.047Z,1.50
2023-04-26T00:46:10.777Z,1.80
2023-04-26T00:48:37.411Z,1.85
2023-04-26T00:51:05.488Z,2.22
2023-04-26T00:53:32.467Z,1.85
2023-04-26T00:55:59.492Z,1.50
2023-04-26T00:58:26.112Z,1.98
2023-04-26T01:00:52.488Z,1.65
2023-04-26T01:03:19.655Z,1.50
2023-04-26T01:05:46.373Z,1.48
2023-04-26T01:08:12.855Z,1.55
2023-04-26T01:10:40.058Z,1.92
2023-04-26T01:13:06.349Z,1.63
2023-04-26T01:15:32.755Z,1.70
2023-04-26T01:17:59.650Z,1.38
2023-04-26T01:20:26.042Z,1.88
2023-04-26T01:22:52.388Z,1.80
2023-04-26T01:25:18.885Z,1.75
2023-04-26T01:27:45.187Z,2.10
2023-04-26T01:30:11.752Z,1.60
2023-04-26T01:32:38.425Z,1.48
2023-04-26T01:35:05.067Z,1.88
2023-04-26T01:37:31.373Z,1.50
2023-04-26T01:39:57.688Z,2.00
2023-04-26T01:42:24.013Z,1.70
2023-04-26T01:44:50.316Z,2.13
2023-04-26T01:47:16.777Z,1.92
2023-04-26T01:49:43.176Z,1.50
2023-04-26T01:52:09.481Z,1.70
2023-04-26T01:54:35.812Z,1.85
2023-04-26T01:57:02.114Z,1.80
2023-04-26T01:59:28.468Z,1.83
2023-04-26T02:01:54.782Z,2.00
2023-04-26T02:04:21.123Z,1.48
2023-04-26T02:06:47.434Z,2.00
2023-04-26T02:09:13.757Z,2.15
2023-04-26T02:11:40.425Z,2.03
2023-04-26T02:14:06.941Z,1.85
2023-04-26T02:16:33.308Z,1.83
2023-04-26T02:18:59.640Z,1.48
2023-04-26T02:21:26.379Z,1.60
2023-04-26T02:23:52.901Z,1.85
2023-04-26T02:26:19.231Z,1.25
2023-04-26T02:28:45.518Z,1.75
2023-04-26T02:31:11.869Z,1.98
2023-04-26T02:33:38.168Z,1.60
2023-04-26T02:36:05.286Z,1.60
2023-04-26T02:38:34.927Z,1.70
2023-04-26T02:41:02.808Z,1.88
2023-04-26T02:43:29.645Z,1.65
2023-04-26T02:45:55.931Z,2.03
2023-04-26T02:48:22.247Z,1.85
2023-04-26T02:50:48.584Z,1.95
2023-04-26T02:53:14.868Z,1.73
2023-04-26T02:55:41.198Z,1.60
2023-04-26T02:58:07.540Z,1.70
2023-04-26T03:00:34.010Z,1.70
2023-04-26T03:03:00.582Z,1.75
2023-04-26T03:05:27.131Z,1.60
2023-04-26T03:07:53.410Z,2.15
2023-04-26T03:10:19.706Z,2.65
2023-04-26T03:12:46.051Z,1.90
2023-04-26T03:15:12.372Z,2.35
2023-04-26T03:17:38.684Z,2.28
2023-04-26T03:20:05.646Z,1.58
2023-04-26T03:22:31.985Z,1.90
2023-04-26T03:24:58.312Z,2.13
2023-04-26T03:27:24.714Z,1.75
2023-04-26T03:29:51.058Z,2.38
2023-04-26T03:32:17.567Z,1.70
2023-04-26T03:34:44.130Z,2.45
2023-04-26T03:37:10.474Z,1.60
2023-04-26T03:39:36.795Z,2.15
2023-04-26T03:42:03.201Z,1.63
2023-04-26T03:44:31.175Z,2.20
2023-04-26T03:46:57.681Z,1.90
2023-04-26T03:49:23.984Z,1.90
2023-04-26T03:51:50.324Z,2.47
2023-04-26T03:54:16.688Z,1.88
2023-04-26T03:56:43.041Z,2.10
2023-04-26T03:59:09.328Z,1.85
2023-04-26T04:01:35.657Z,1.55
2023-04-26T04:04:02.462Z,2.33
2023-04-26T04:06:28.929Z,1.95
2023-04-26T04:08:55.414Z,2.22
2023-04-26T04:11:21.948Z,1.92
2023-04-26T04:13:48.442Z,2.42
2023-04-26T04:16:14.813Z,2.13
2023-04-26T04:18:41.257Z,2.30
2023-04-26T04:21:07.558Z,2.47
2023-04-26T04:23:33.861Z,2.25
2023-04-26T04:26:00.196Z,1.80
2023-04-26T04:28:26.498Z,2.13
2023-04-26T04:30:52.834Z,3.00
2023-04-26T04:33:19.170Z,2.05
2023-04-26T04:35:45.627Z,2.03
2023-04-26T04:38:14.786Z,1.88
2023-04-26T04:40:41.156Z,2.53
2023-04-26T04:43:07.466Z,1.95
2023-04-26T04:45:33.795Z,2.03
2023-04-26T04:48:00.165Z,2.30
2023-04-26T04:50:26.723Z,2.40
2023-04-26T04:52:53.012Z,2.28
2023-04-26T04:55:19.504Z,1.67
2023-04-26T04:57:45.820Z,1.98
2023-04-26T05:00:12.731Z,1.90
2023-04-26T05:02:39.154Z,2.20
2023-04-26T05:05:06.081Z,2.28
2023-04-26T05:07:32.624Z,1.98
2023-04-26T05:09:59.255Z,1.73
2023-04-26T05:12:25.855Z,1.80
2023-04-26T05:14:52.214Z,2.58
2023-04-26T05:17:18.596Z,2.38
2023-04-26T05:19:44.914Z,2.72
2023-04-26T05:22:11.904Z,2.03
2023-04-26T05:24:38.181Z,2.40
2023-04-26T05:27:04.754Z,2.47
2023-04-26T05:29:31.214Z,2.42
2023-04-26T05:31:57.677Z,2.33
2023-04-26T05:34:24.127Z,2.17
2023-04-26T05:36:50.433Z,2.05
2023-04-26T05:39:17.184Z,2.45
2023-04-26T05:41:43.477Z,2.08
2023-04-26T05:44:09.885Z,2.15
2023-04-26T05:46:36.200Z,2.50
2023-04-26T05:49:02.517Z,2.35
2023-04-26T05:51:28.921Z,3.00
2023-04-26T05:53:55.352Z,2.88
2023-04-26T05:56:21.712Z,2.10
2023-04-26T05:58:47.995Z,2.47
2023-04-26T06:01:14.316Z,2.05
2023-04-26T06:03:40.859Z,2.20
2023-04-26T06:06:07.366Z,2.45
2023-04-26T06:08:34.500Z,2.88
2023-04-26T06:11:00.822Z,2.00
2023-04-26T06:13:27.145Z,2.10
2023-04-26T06:15:53.946Z,2.30
2023-04-26T06:18:20.263Z,2.10
2023-04-26T06:20:46.792Z,2.53
2023-04-26T06:23:13.144Z,1.92
2023-04-26T06:25:39.471Z,2.90
2023-04-26T06:28:05.774Z,2.13
2023-04-26T06:30:32.079Z,2.05
2023-04-26T06:32:58.415Z,2.08
2023-04-26T06:35:24.731Z,2.10
2023-04-26T06:37:51.085Z,2.60
2023-04-26T06:40:17.465Z,1.98
2023-04-26T06:42:43.775Z,2.78
2023-04-26T06:45:10.894Z,2.15
2023-04-26T06:47:37.220Z,2.20
2023-04-26T06:50:04.809Z,2.30
2023-04-26T06:52:31.225Z,2.30
2023-04-26T06:54:57.914Z,2.28
2023-04-26T06:57:24.360Z,2.60
2023-04-26T06:59:50.729Z,2.22
2023-04-26T07:02:17.090Z,1.85
2023-04-26T07:04:43.853Z,2.38
2023-04-26T07:07:12.925Z,2.65
2023-04-26T07:09:39.662Z,2.60
2023-04-26T07:12:06.141Z,2.50
2023-04-26T07:14:32.456Z,2.78
2023-04-26T07:16:58.742Z,2.22
2023-04-26T07:19:25.037Z,2.60
2023-04-26T07:21:51.381Z,2.35
2023-04-26T07:24:17.672Z,1.85
2023-04-26T07:26:43.970Z,2.05
2023-04-26T07:29:10.282Z,2.20
2023-04-26T07:31:36.582Z,2.53
2023-04-26T07:34:02.882Z,1.92
2023-04-26T07:36:29.191Z,1.98
2023-04-26T07:38:55.470Z,2.40
2023-04-26T07:41:21.848Z,2.13
2023-04-26T07:43:48.395Z,3.15
2023-04-26T07:46:14.793Z,2.20
2023-04-26T07:48:41.093Z,1.88
2023-04-26T07:51:11.810Z,1.90
2023-04-26T07:53:39.391Z,1.92
2023-04-26T07:56:06.650Z,1.75
2023-04-26T07:58:33.347Z,2.15
2023-04-26T08:01:00.236Z,1.70
2023-04-26T08:03:26.760Z,1.80
2023-04-26T08:05:53.937Z,2.33
2023-04-26T08:08:23.580Z,2.08
2023-04-26T08:10:49.883Z,2.00
2023-04-26T08:13:16.178Z,1.75
2023-04-26T08:15:42.591Z,2.00
2023-04-26T08:18:08.918Z,2.40
2023-04-26T08:20:35.233Z,1.98
2023-04-26T08:23:01.583Z,1.58
2023-04-26T08:25:28.020Z,1.60
2023-04-26T08:27:54.343Z,1.50
2023-04-26T08:30:20.705Z,1.55
2023-04-26T08:32:47.122Z,1.67
2023-04-26T08:35:13.645Z,1.52
2023-04-26T08:37:40.053Z,1.50
2023-04-26T08:40:07.838Z,1.75
2023-04-26T08:42:40.924Z,2.08
2023-04-26T08:45:08.079Z,1.77
2023-04-26T08:47:39.852Z,2.05
2023-04-26T08:50:08.145Z,2.65
2023-04-26T08:52:35.430Z,1.58
2023-04-26T08:57:31.438Z,1.88
2023-04-26T08:59:58.091Z,1.10
2023-04-26T09:02:25.102Z,2.42
2023-04-26T09:07:26.998Z,2.08
2023-04-26T09:09:55.069Z,2.58
2023-04-26T09:12:21.399Z,1.70
2023-04-26T09:14:48.657Z,2.00
2023-04-26T09:19:58.159Z,1.88
2023-04-26T09:22:31.872Z,2.50
2023-04-26T09:24:58.882Z,2.20
2023-04-26T09:27:39.727Z,1.48
2023-04-26T09:30:24.790Z,2.00
2023-04-26T09:32:59.176Z,2.08
2023-04-26T09:35:27.534Z,1.92
2023-04-26T09:38:00.260Z,1.88
2023-04-26T09:40:29.734Z,1.77
2023-04-26T09:43:16.237Z,1.90
2023-04-26T09:45:56.906Z,2.08
2023-04-26T09:48:30.921Z,2.10
2023-04-26T09:51:04.378Z,1.83
2023-04-26T09:53:47.733Z,1.80
2023-04-26T09:56:19.600Z,1.98
2023-04-26T09:58:59.850Z,1.92
2023-04-26T10:01:28.258Z,1.88
2023-04-26T10:03:56.791Z,1.75
2023-04-26T10:06:23.904Z,1.75
2023-04-26T10:08:50.291Z,1.80
2023-04-26T10:11:18.531Z,1.80
2023-04-26T10:13:44.837Z,2.20
2023-04-26T10:16:11.190Z,1.83
2023-04-26T10:18:37.924Z,2.00
2023-04-26T10:21:22.471Z,1.88
2023-04-26T10:23:49.824Z,2.22
2023-04-26T10:26:47.048Z,2.10
2023-04-26T10:29:13.375Z,1.95
2023-04-26T10:32:01.726Z,1.90
2023-04-26T10:37:14.079Z,1.73
2023-04-26T10:39:45.589Z,1.67
2023-04-26T10:42:28.119Z,2.22
2023-04-26T10:44:59.227Z,1.67
2023-04-26T10:47:32.823Z,2.42
2023-04-26T10:50:10.488Z,1.58
2023-04-26T10:52:58.846Z,1.58
2023-04-26T10:57:56.170Z,1.83
2023-04-26T11:00:29.213Z,1.80
2023-04-26T11:03:03.426Z,1.90
2023-04-26T11:08:17.093Z,2.13
2023-04-26T11:10:50.720Z,1.77
2023-04-26T11:13:17.321Z,1.58
2023-04-26T11:15:43.642Z,1.92
2023-04-26T11:18:09.963Z,2.10
2023-04-26T11:20:36.272Z,2.40
2023-04-26T11:23:02.858Z,1.80
2023-04-26T11:25:29.842Z,2.15
2023-04-26T11:30:40.566Z,2.50
2023-04-26T11:33:06.900Z,2.70
2023-04-26T11:35:35.386Z,2.83
2023-04-26T11:38:04.586Z,3.20
2023-04-26T11:40:32.442Z,2.38
2023-04-26T11:45:26.251Z,2.60
2023-04-26T11:47:53.044Z,2.60
2023-04-26T11:50:20.127Z,2.85
2023-04-26T11:52:46.522Z,2.20
2023-04-26T11:55:12.857Z,2.50
2023-04-26T11:57:39.152Z,2.20
2023-04-26T12:00:14.866Z,2.90
2023-04-26T12:02:48.822Z,2.40
2023-04-26T12:05:29.226Z,2.45
2023-04-26T12:07:58.674Z,2.70
2023-04-26T12:10:34.158Z,2.40
2023-04-26T12:13:00.747Z,2.88
2023-04-26T12:15:34.189Z,2.80
2023-04-26T12:18:06.046Z,2.30
2023-04-26T12:20:35.720Z,2.72
2023-04-26T12:23:04.046Z,2.50
2023-04-26T12:27:57.352Z,2.45
2023-04-26T12:30:26.499Z,3.15
2023-04-26T12:32:52.868Z,2.83
2023-04-26T12:35:19.308Z,2.65
2023-04-26T12:37:45.659Z,2.50
2023-04-26T12:40:12.626Z,2.55
2023-04-26T12:42:39.184Z,2.80
2023-04-26T12:45:05.933Z,2.67
2023-04-26T12:47:35.209Z,3.00
2023-04-26T12:50:01.806Z,2.30
2023-04-26T12:52:28.146Z,2.83
2023-04-26T12:54:54.516Z,2.80
2023-04-26T12:57:20.918Z,2.47
2023-04-26T12:59:47.504Z,2.88
2023-04-26T13:02:13.939Z,2.70
2023-04-26T13:04:41.702Z,2.58
2023-04-26T13:07:08.660Z,2.65
2023-04-26T13:09:34.985Z,2.78
2023-04-26T13:12:01.284Z,2.75
2023-04-26T13:14:27.553Z,2.80
2023-04-26T13:16:53.966Z,2.30
2023-04-26T13:19:20.379Z,2.95
2023-04-26T13:21:46.659Z,2.70
2023-04-26T13:24:12.961Z,2.60
2023-04-26T13:26:39.293Z,2.67
2023-04-26T13:29:05.605Z,2.85
2023-04-26T13:31:31.965Z,2.80
2023-04-26T13:33:58.312Z,2.53
2023-04-26T13:36:24.658Z,3.00
2023-04-26T13:38:51.108Z,2.78
2023-04-26T13:41:17.500Z,2.40
2023-04-26T13:43:43.833Z,2.53
2023-04-26T13:46:10.139Z,5.07
2023-04-26T13:48:36.460Z,3.72
2023-04-26T13:51:04.056Z,2.58
2023-04-26T13:53:33.264Z,2.80
2023-04-26T13:55:59.558Z,2.80
2023-04-26T13:58:25.852Z,2.55
2023-04-26T14:00:52.145Z,2.60
2023-04-26T14:03:18.690Z,2.80
2023-04-26T14:05:45.141Z,3.03
2023-04-26T14:08:11.429Z,2.95
2023-04-26T14:10:37.766Z,2.30
2023-04-26T14:13:04.050Z,2.70
2023-04-26T14:15:30.364Z,3.03
2023-04-26T14:17:56.708Z,2.35
2023-04-26T14:20:23.034Z,2.65
2023-04-26T14:22:49.370Z,2.97
2023-04-26T14:25:15.782Z,3.03
2023-04-26T14:27:42.103Z,2.55
2023-04-26T14:30:08.693Z,2.90
2023-04-26T14:32:35.140Z,2.85
2023-04-26T14:37:26.614Z,2.55
2023-04-26T14:39:52.909Z,2.45
2023-04-26T14:42:19.230Z,2.50
2023-04-26T14:44:45.533Z,2.50
2023-04-26T14:47:11.883Z,2.50
2023-04-26T14:49:38.175Z,2.45
2023-04-26T14:52:04.700Z,2.72
2023-04-26T14:57:09.048Z,2.60
2023-04-26T14:59:35.597Z,2.83
2023-04-26T15:02:02.401Z,2.28
2023-04-26T15:04:29.141Z,3.25
2023-04-26T15:06:55.694Z,2.33
2023-04-26T15:09:22.051Z,2.25
2023-04-26T15:11:48.340Z,2.08
2023-04-26T15:14:14.615Z,2.85
2023-04-26T15:16:40.944Z,2.30
2023-04-26T15:19:07.309Z,2.72
2023-04-26T15:21:33.628Z,2.88
2023-04-26T15:23:59.936Z,2.60
2023-04-26T15:26:26.254Z,2.40
2023-04-26T15:28:52.572Z,2.58
2023-04-26T15:31:20.472Z,2.47
2023-04-26T15:33:46.825Z,2.70
2023-04-26T15:36:13.147Z,2.75
2023-04-26T15:38:39.530Z,2.70
2023-04-26T15:41:05.833Z,2.60
2023-04-26T15:43:32.133Z,2.35
2023-04-26T15:45:58.533Z,2.70
2023-04-26T15:48:24.989Z,2.10
2023-04-26T15:50:51.551Z,2.60
2023-04-26T15:53:18.096Z,2.72
2023-04-26T15:55:44.492Z,2.63
2023-04-26T15:58:10.790Z,2.30
2023-04-26T16:00:37.137Z,2.58
2023-04-26T16:03:03.655Z,2.88
2023-04-26T16:05:30.119Z,2.40
2023-04-26T16:07:56.446Z,2.58
2023-04-26T16:10:22.872Z,2.03
2023-04-26T16:12:49.242Z,2.28
2023-04-26T16:15:15.702Z,2.53
2023-04-26T16:17:42.104Z,2.67
2023-04-26T16:20:09.397Z,3.22
2023-04-26T16:25:05.590Z,2.35
2023-04-26T16:27:32.295Z,2.63
2023-04-26T16:29:58.621Z,2.20
2023-04-26T16:32:25.017Z,2.80
2023-04-26T16:34:51.628Z,2.33
2023-04-26T16:37:17.995Z,2.83
2023-04-26T16:39:45.014Z,2.30
2023-04-26T16:42:11.441Z,2.25
2023-04-26T16:44:37.824Z,2.70
2023-04-26T16:47:04.516Z,2.60
2023-04-26T16:51:57.041Z,2.75
2023-04-26T16:54:23.397Z,2.47
2023-04-26T16:56:49.765Z,2.70
2023-04-26T16:59:16.083Z,2.58
2023-04-26T17:01:42.531Z,2.53
2023-04-26T17:04:10.289Z,3.13
2023-04-26T17:06:38.783Z,2.58
2023-04-26T17:09:05.116Z,2.80
2023-04-26T17:13:56.768Z,2.60
2023-04-26T17:16:23.123Z,2.47
2023-04-26T17:18:49.479Z,2.78
2023-04-26T17:21:15.806Z,2.78
2023-04-26T17:23:42.213Z,2.70
2023-04-26T17:26:08.539Z,2.22
2023-04-26T17:28:37.496Z,2.90
2023-04-26T17:31:04.002Z,2.58
2023-04-26T17:33:30.324Z,2.38
2023-04-26T17:35:56.680Z,2.20
2023-04-26T17:38:23.020Z,2.33
2023-04-26T17:40:53.332Z,2.40
2023-04-26T17:43:19.903Z,2.28
2023-04-26T17:45:46.552Z,2.22
2023-04-26T17:48:13.139Z,2.72
2023-04-26T17:50:39.760Z,2.33
2023-04-26T17:53:06.271Z,2.30
2023-04-26T17:55:36.019Z,2.65
2023-04-26T17:58:02.354Z,2.42
2023-04-26T18:00:28.723Z,2.17
2023-04-26T18:02:55.143Z,1.95
2023-04-26T18:05:21.712Z,2.60
2023-04-26T18:07:48.016Z,2.13
2023-04-26T18:10:14.349Z,2.72
2023-04-26T18:12:42.628Z,2.70
2023-04-26T18:15:09.022Z,2.30
2023-04-26T18:17:35.431Z,2.50
2023-04-26T18:20:02.165Z,1.90
2023-04-26T18:22:28.444Z,2.63
2023-04-26T18:24:54.775Z,2.53
2023-04-26T18:27:21.090Z,2.00
2023-04-26T18:29:47.389Z,2.20
2023-04-26T18:32:13.796Z,2.20
2023-04-26T18:34:40.239Z,2.22
2023-04-26T18:37:07.131Z,2.25
2023-04-26T18:42:00.619Z,2.10
2023-04-26T18:44:26.905Z,2.13
2023-04-26T18:46:53.283Z,2.13
2023-04-26T18:49:19.641Z,2.10
2023-04-26T18:51:45.942Z,2.33
2023-04-26T18:54:12.257Z,2.50
2023-04-26T18:56:38.588Z,2.78
2023-04-26T18:59:04.922Z,2.47
2023-04-26T19:04:10.927Z,2.72
2023-04-26T19:06:40.283Z,2.88
2023-04-26T19:09:06.628Z,2.40
2023-04-26T19:11:32.973Z,2.60
2023-04-26T19:13:59.312Z,2.70
2023-04-26T19:16:25.617Z,2.75
2023-04-26T19:18:52.012Z,2.78
2023-04-26T19:21:18.325Z,2.30
2023-04-26T19:23:46.601Z,2.60
2023-04-26T19:26:13.104Z,2.83
2023-04-26T19:28:39.601Z,2.50
2023-04-26T19:31:06.310Z,2.97
2023-04-26T19:33:35.828Z,2.80
2023-04-26T19:36:02.275Z,2.50
2023-04-26T19:38:28.628Z,2.90
2023-04-26T19:40:54.962Z,3.03
2023-04-26T19:43:21.388Z,2.67
2023-04-26T19:45:48.080Z,2.97
2023-04-26T19:48:14.631Z,3.10
2023-04-26T19:50:45.202Z,2.80
2023-04-26T19:53:13.483Z,2.45
2023-04-26T19:55:41.206Z,2.40
2023-04-26T19:58:08.675Z,2.20
2023-04-26T20:00:35.168Z,2.35
2023-04-26T20:03:02.222Z,2.83
2023-04-26T20:05:28.874Z,2.83
2023-04-26T20:07:55.980Z,2.70
2023-04-26T20:10:22.274Z,2.50
2023-04-26T20:12:48.909Z,3.50
2023-04-26T20:15:15.496Z,3.08
2023-04-26T20:17:42.594Z,4.05
2023-04-26T20:20:10.902Z,2.85
2023-04-26T20:22:37.511Z,2.88
2023-04-26T20:25:04.548Z,2.47
2023-04-26T20:27:30.868Z,3.05
2023-04-26T20:29:57.226Z,2.83
2023-04-26T20:32:23.623Z,3.00
2023-04-26T20:34:50.014Z,2.78
2023-04-26T20:37:16.343Z,2.60
2023-04-26T20:39:42.602Z,2.35
2023-04-26T20:42:08.960Z,2.42
2023-04-26T20:44:35.349Z,2.50
2023-04-26T20:47:01.654Z,2.92
2023-04-26T20:49:27.960Z,2.47
2023-04-26T20:51:54.298Z,3.00
2023-04-26T20:54:20.689Z,2.80
2023-04-26T20:56:46.986Z,2.92
2023-04-26T20:59:13.299Z,2.47
2023-04-26T21:01:39.655Z,3.90
2023-04-26T21:04:06.208Z,3.70
2023-04-26T21:06:32.594Z,2.92
2023-04-26T21:08:59.064Z,2.45
2023-04-26T21:11:25.348Z,2.42
2023-04-26T21:13:51.660Z,2.50
2023-04-26T21:16:17.958Z,2.80
2023-04-26T21:18:44.272Z,2.42
2023-04-26T21:21:10.567Z,2.42
2023-04-26T21:23:36.885Z,2.45
2023-04-26T21:26:03.266Z,2.50
2023-04-26T21:28:29.570Z,2.80
2023-04-26T21:31:06.836Z,2.50
2023-04-26T21:33:34.211Z,2.35
2023-04-26T21:38:27.164Z,2.40
2023-04-26T21:40:53.512Z,2.65
2023-04-26T21:43:19.973Z,2.25
2023-04-26T21:45:46.278Z,2.90
2023-04-26T21:48:12.717Z,2.40
2023-04-26T21:50:39.077Z,2.50
2023-04-26T21:53:05.401Z,2.40
2023-04-26T21:55:31.739Z,2.50
2023-04-26T21:57:58.027Z,2.40
2023-04-26T22:00:24.421Z,2.38
2023-04-26T22:02:50.850Z,2.33
2023-04-26T22:05:17.293Z,2.33
2023-04-26T22:07:43.620Z,2.45
2023-04-26T22:10:10.350Z,2.03
2023-04-26T22:12:36.687Z,2.22
2023-04-26T22:15:03.088Z,2.13
2023-04-26T22:17:29.429Z,2.15
2023-04-26T22:19:55.761Z,2.40
2023-04-26T22:22:22.080Z,2.63
2023-04-26T22:24:48.406Z,2.60
2023-04-26T22:27:14.715Z,2.15
2023-04-26T22:29:40.986Z,2.63
2023-04-26T22:32:07.339Z,2.70
2023-04-26T22:34:33.727Z,2.72
2023-04-26T22:37:13.082Z,2.28
2023-04-26T22:39:46.308Z,2.25
2023-04-26T22:42:12.621Z,2.80
2023-04-26T22:44:38.900Z,2.50
2023-04-26T22:47:05.252Z,2.35
2023-04-26T22:49:31.555Z,2.63
2023-04-26T22:52:07.889Z,2.40
2023-04-26T22:54:38.238Z,2.85
2023-04-26T22:57:04.698Z,2.90
2023-04-26T22:59:31.009Z,3.42
2023-04-26T23:01:57.290Z,3.22
2023-04-26T23:04:23.626Z,2.83
2023-04-26T23:06:49.944Z,3.13
2023-04-26T23:09:16.261Z,2.83
2023-04-26T23:11:42.584Z,3.10
2023-04-26T23:14:09.065Z,2.95
2023-04-26T23:16:35.875Z,3.08
2023-04-26T23:19:02.238Z,2.60
2023-04-26T23:21:28.526Z,3.42
2023-04-26T23:23:54.863Z,2.63
2023-04-26T23:26:21.164Z,2.63
2023-04-26T23:28:47.447Z,2.50
2023-04-26T23:31:13.767Z,2.22
2023-04-26T23:33:40.070Z,2.65
2023-04-26T23:36:06.923Z,2.72
2023-04-26T23:38:33.314Z,2.33
2023-04-26T23:40:59.605Z,2.50
2023-04-26T23:43:25.932Z,2.30
2023-04-26T23:45:52.381Z,2.65
2023-04-26T23:48:18.754Z,2.60
2023-04-26T23:50:45.091Z,2.15
2023-04-26T23:53:11.409Z,2.42
2023-04-26T23:55:38.470Z,2.33
2023-04-26T23:58:04.825Z,2.80
